Time;durP1;ratioP1;P1;durP2;ratioP2;P2;SDS_P1;SDS_P2;PMS_P1;PMS_P2;Temp;Humidity;BMP_temperature;BMP_pressure;BME280_temperature;BME280_humidity;BME280_pressure;Samples;Min_cycle;Max_cycle;Signal;HPM_P1;HPM_P2
2023/04/03 00:00:36;;;;;;;5.73;1.83;;;;;;;4.06;64.11;103314.41;6188830;28;20233;-71
2023/04/03 00:03:57;;;;;;;2.80;2.43;;;;;;;4.12;63.32;103309.75;6203564;28;20253;-71
2023/04/03 00:07:19;;;;;;;5.93;2.40;;;;;;;4.16;63.28;103317.47;6215944;28;20515;-72
2023/04/03 00:10:40;;;;;;;2.17;2.00;;;;;;;4.11;63.07;103310.66;6205574;28;20343;-71
2023/04/03 00:14:01;;;;;;;3.20;2.13;;;;;;;4.13;63.30;103313.22;6213028;28;20529;-72
2023/04/03 00:17:22;;;;;;;3.73;2.90;;;;;;;4.10;63.57;103316.78;6208567;28;20236;-72
2023/04/03 00:20:42;;;;;;;1.90;1.80;;;;;;;4.05;63.54;103312.72;6196798;28;20594;-71
2023/04/03 00:24:05;;;;;;;4.57;2.37;;;;;;;4.07;63.21;103321.31;6197186;28;20610;-71
2023/04/03 00:27:25;;;;;;;3.50;2.20;;;;;;;4.02;63.81;103320.66;6217260;28;20598;-72
2023/04/03 00:30:47;;;;;;;3.47;2.73;;;;;;;3.94;64.63;103326.22;6211009;28;20232;-70
2023/04/03 00:34:08;;;;;;;5.07;2.10;;;;;;;3.87;64.06;103326.53;6194820;28;20220;-71
2023/04/03 00:37:29;;;;;;;5.10;2.10;;;;;;;3.89;64.76;103322.09;6219265;28;20613;-70
2023/04/03 00:40:51;;;;;;;3.17;2.43;;;;;;;3.76;65.52;103324.38;6198868;28;20220;-71
2023/04/03 00:44:23;;;;;;;2.77;1.80;;;;;;;3.80;64.55;103323.34;6208447;28;20228;-72
2023/04/03 00:47:45;;;;;;;1.57;1.47;;;;;;;3.71;65.40;103326.31;6221598;28;20231;-72
2023/04/03 00:51:08;;;;;;;2.20;2.10;;;;;;;3.70;65.07;103327.22;6211467;28;20232;-72
2023/04/03 00:54:29;;;;;;;2.80;1.73;;;;;;;3.74;65.11;103324.44;6194796;28;20228;-72
2023/04/03 00:57:53;;;;;;;2.70;1.63;;;;;;;3.74;65.33;103324.44;6209886;28;20533;-73
2023/04/03 01:01:19;;;;;;;2.77;2.40;;;;;;;3.58;66.28;103327.75;6210301;28;20549;-71
2023/04/03 01:04:43;;;;;;;3.00;2.20;;;;;;;3.57;65.71;103331.25;6178370;28;20792;-72
2023/04/03 01:08:04;;;;;;;3.80;2.23;;;;;;;3.59;65.58;103332.06;6207744;28;20235;-72
2023/04/03 01:11:25;;;;;;;3.10;1.97;;;;;;;3.64;65.82;103336.16;6199511;28;20547;-72
2023/04/03 01:14:51;;;;;;;2.20;1.60;;;;;;;3.65;65.08;103327.41;6195366;28;20311;-72
2023/04/03 01:18:13;;;;;;;3.37;2.50;;;;;;;3.64;64.76;103324.84;6207846;28;20351;-72
2023/04/03 01:22:02;;;;;;;4.40;2.20;;;;;;;3.58;65.62;103330.34;6207946;28;20233;-72
2023/04/03 01:25:23;;;;;;;2.67;2.13;;;;;;;3.61;65.46;103330.22;6192896;28;20248;-72
2023/04/03 01:28:45;;;;;;;2.00;1.57;;;;;;;3.62;64.68;103329.28;6186687;28;20241;-72
2023/04/03 01:32:07;;;;;;;3.43;1.77;;;;;;;3.54;65.35;103328.78;6194219;28;20221;-72
2023/04/03 01:35:29;;;;;;;4.73;1.93;;;;;;;3.47;66.14;103327.31;6190714;28;20256;-72
2023/04/03 01:38:50;;;;;;;3.03;1.57;;;;;;;3.48;65.24;103329.00;6194651;28;20233;-71
2023/04/03 01:42:12;;;;;;;2.10;1.73;;;;;;;3.43;65.77;103322.22;6217540;28;20232;-71
2023/04/03 01:45:35;;;;;;;1.87;1.73;;;;;;;3.36;66.45;103326.00;6194864;28;20249;-72
2023/04/03 01:48:58;;;;;;;1.73;1.57;;;;;;;3.41;66.22;103320.56;6207649;28;20232;-71
2023/04/03 01:52:19;;;;;;;4.33;1.70;;;;;;;3.33;66.54;103320.88;6204390;28;20212;-71
2023/04/03 01:55:40;;;;;;;1.93;1.73;;;;;;;3.38;66.80;103333.78;6209493;28;20237;-71
2023/04/03 01:59:01;;;;;;;2.33;1.57;;;;;;;3.35;66.94;103332.13;6182672;28;20229;-71
2023/04/03 02:02:22;;;;;;;8.80;1.70;;;;;;;3.34;66.47;103337.41;6202109;28;20233;-72
2023/04/03 02:05:45;;;;;;;7.93;2.83;;;;;;;3.37;66.11;103338.13;6207323;28;20228;-72
2023/04/03 02:09:06;;;;;;;2.43;2.23;;;;;;;3.30;66.41;103341.88;6200748;28;20225;-72
2023/04/03 02:12:27;;;;;;;1.97;1.50;;;;;;;3.29;66.99;103340.19;6216921;28;20244;-72
2023/04/03 02:15:48;;;;;;;4.97;2.73;;;;;;;3.20;67.30;103342.28;6196894;28;20617;-72
2023/04/03 02:19:11;;;;;;;4.10;1.67;;;;;;;3.30;66.56;103339.28;6191093;28;20247;-72
2023/04/03 02:22:35;;;;;;;2.00;1.57;;;;;;;3.22;67.02;103340.47;6209009;28;20265;-72
2023/04/03 02:26:07;;;;;;;1.53;1.23;;;;;;;3.19;67.51;103338.84;6181313;28;20733;-73
2023/04/03 02:29:28;;;;;;;4.00;2.80;;;;;;;3.19;67.79;103340.59;6196182;28;20228;-72
2023/04/03 02:32:49;;;;;;;5.43;2.23;;;;;;;3.19;67.03;103343.19;6205903;28;20279;-72
2023/04/03 02:36:10;;;;;;;2.37;2.13;;;;;;;3.15;67.17;103347.72;6205965;28;20224;-73
2023/04/03 02:39:34;;;;;;;4.23;2.27;;;;;;;3.08;68.32;103354.06;6199751;28;20314;-72
2023/04/03 02:42:55;;;;;;;1.73;1.50;;;;;;;3.05;68.04;103346.34;6199909;28;20686;-72
2023/04/03 02:46:18;;;;;;;3.73;1.73;;;;;;;3.04;67.74;103350.72;6220246;28;20235;-72
2023/04/03 02:49:39;;;;;;;2.37;1.67;;;;;;;2.96;68.67;103355.34;6196625;28;20727;-72
2023/04/03 02:53:00;;;;;;;1.73;1.63;;;;;;;2.96;67.99;103360.56;6201007;28;20236;-72
2023/04/03 02:56:22;;;;;;;4.87;2.23;;;;;;;2.95;68.67;103350.19;6195221;28;20315;-72
2023/04/03 02:59:44;;;;;;;4.17;1.97;;;;;;;2.87;68.74;103353.13;6201168;28;20232;-72
2023/04/03 03:03:06;;;;;;;1.50;1.40;;;;;;;2.93;68.53;103349.44;6213546;28;20569;-72
2023/04/03 03:06:27;;;;;;;1.40;1.00;;;;;;;2.87;69.10;103358.34;6212100;28;20221;-72
2023/04/03 03:09:49;;;;;;;3.00;1.40;;;;;;;2.87;68.80;103350.50;6198977;28;20494;-72
2023/04/03 03:13:11;;;;;;;2.27;1.47;;;;;;;2.89;69.72;103351.31;6195865;28;21753;-73
2023/04/03 03:16:32;;;;;;;1.50;1.40;;;;;;;2.84;69.79;103355.84;6222846;28;20232;-73
2023/04/03 03:19:53;;;;;;;1.90;1.27;;;;;;;2.85;69.15;103354.06;6197488;28;20372;-72
2023/04/03 03:23:14;;;;;;;2.70;2.53;;;;;;;2.78;69.30;103347.38;6209837;28;20347;-73
2023/04/03 03:26:35;;;;;;;1.20;1.10;;;;;;;2.78;69.89;103352.59;6200170;28;20228;-72
2023/04/03 03:29:58;;;;;;;3.10;1.87;;;;;;;2.71;69.12;103349.38;6194043;28;20232;-72
2023/04/03 03:33:20;;;;;;;3.13;2.40;;;;;;;2.77;69.40;103353.50;6196997;28;21195;-72
2023/04/03 03:36:41;;;;;;;2.53;1.23;;;;;;;2.71;69.83;103349.38;6206331;28;20248;-72
2023/04/03 03:40:01;;;;;;;3.13;1.93;;;;;;;2.61;70.12;103351.47;6207649;28;20291;-71
2023/04/03 03:43:24;;;;;;;6.63;1.30;;;;;;;2.64;69.57;103353.09;6199570;28;20742;-71
2023/04/03 03:46:48;;;;;;;2.83;1.73;;;;;;;2.59;70.31;103352.41;6220819;28;20236;-72
2023/04/03 03:50:10;;;;;;;1.97;1.80;;;;;;;2.57;70.43;103349.00;6187033;28;20225;-70
2023/04/03 03:53:31;;;;;;;3.57;2.17;;;;;;;2.64;69.87;103353.97;6203937;28;20229;-71
2023/04/03 03:56:57;;;;;;;5.57;1.90;;;;;;;2.56;70.04;103361.19;6201659;28;20228;-72
2023/04/03 04:00:20;;;;;;;2.27;1.27;;;;;;;2.59;70.34;103358.47;6189964;28;20260;-71
2023/04/03 04:03:48;;;;;;;2.20;1.70;;;;;;;2.55;69.75;103358.63;6196507;28;20229;-71
2023/04/03 04:07:14;;;;;;;2.00;1.90;;;;;;;2.53;70.00;103358.69;6196707;28;20315;-71
2023/04/03 04:10:38;;;;;;;9.03;6.27;;;;;;;2.56;70.18;103358.59;6195820;28;20229;-72
2023/04/03 04:14:00;;;;;;;21.97;13.27;;;;;;;2.51;70.12;103351.81;6185956;28;20248;-72
2023/04/03 04:17:23;;;;;;;8.97;6.87;;;;;;;2.52;69.79;103350.91;6203495;28;20228;-71
2023/04/03 04:20:47;;;;;;;4.17;3.17;;;;;;;2.50;70.38;103356.19;6199045;28;21624;-72
2023/04/03 04:24:09;;;;;;;2.03;1.57;;;;;;;2.44;70.39;103352.97;6193742;28;20225;-72
2023/04/03 04:27:31;;;;;;;4.63;1.50;;;;;;;2.42;70.94;103360.84;6203885;28;20228;-72
2023/04/03 04:30:52;;;;;;;1.43;1.33;;;;;;;2.40;70.98;103365.25;6185449;28;20232;-71
2023/04/03 04:34:15;;;;;;;5.60;1.90;;;;;;;2.38;70.80;103370.53;6197241;28;20260;-72
2023/04/03 04:37:38;;;;;;;3.00;1.90;;;;;;;2.37;70.93;103365.34;6209232;28;20614;-73
2023/04/03 04:40:59;;;;;;;1.97;1.80;;;;;;;2.40;71.71;103375.69;6203014;28;20237;-72
2023/04/03 04:44:21;;;;;;;2.13;1.43;;;;;;;2.43;71.11;103372.13;6195663;28;20713;-71
2023/04/03 04:47:42;;;;;;;1.80;1.70;;;;;;;2.38;70.61;103377.50;6219373;28;20240;-71
2023/04/03 04:51:04;;;;;;;1.90;1.80;;;;;;;2.38;70.48;103382.69;6209185;28;20779;-72
2023/04/03 04:54:27;;;;;;;4.03;2.20;;;;;;;2.38;70.53;103386.16;6208508;28;20224;-71
2023/04/03 04:57:48;;;;;;;1.60;1.47;;;;;;;2.34;70.78;103383.72;6219444;28;20594;-72
2023/04/03 05:01:11;;;;;;;2.37;1.17;;;;;;;2.32;70.11;103385.50;6200401;28;20236;-71
2023/04/03 05:04:51;;;;;;;2.70;2.50;;;;;;;2.24;71.92;103392.75;6173884;28;20232;-69
2023/04/03 05:08:16;;;;;;;4.83;1.90;;;;;;;2.67;73.39;103406.00;6190951;28;20241;-76
2023/04/03 05:11:39;;;;;;;6.03;1.77;;;;;;;2.66;70.70;103396.47;6194897;28;20236;-69
2023/04/03 05:15:02;;;;;;;1.90;1.77;;;;;;;2.59;70.62;103401.94;6190677;28;20640;-69
2023/04/03 05:18:25;;;;;;;4.20;1.77;;;;;;;2.60;69.84;103403.66;6200807;28;21063;-70
2023/04/03 05:21:48;;;;;;;1.53;1.40;;;;;;;2.60;69.94;103406.25;6192607;28;20681;-69
2023/04/03 05:25:11;;;;;;;3.53;2.47;;;;;;;2.61;70.35;103405.34;6208706;28;20224;-68
2023/04/03 05:28:35;;;;;;;1.87;1.37;;;;;;;2.69;71.47;103408.56;6188610;28;20555;-70
2023/04/03 05:31:56;;;;;;;1.90;1.70;;;;;;;2.93;71.82;103415.50;6190757;28;20260;-68
2023/04/03 05:35:17;;;;;;;2.00;1.80;;;;;;;2.98;69.69;103413.56;6193916;28;20232;-69
2023/04/03 05:38:40;;;;;;;5.93;3.13;;;;;;;2.93;69.70;103412.03;6191177;28;20580;-69
2023/04/03 05:42:02;;;;;;;3.83;2.00;;;;;;;2.94;68.99;103417.16;6215297;28;20228;-69
2023/04/03 05:45:25;;;;;;;2.53;2.33;;;;;;;2.96;68.97;103425.78;6192660;28;20232;-68
2023/04/03 05:48:46;;;;;;;3.17;1.90;;;;;;;3.00;69.12;103429.16;6195309;28;20233;-69
2023/04/03 05:52:21;;;;;;;1.90;1.80;;;;;;;3.08;68.69;103427.97;6198932;28;20232;-68
2023/04/03 05:55:42;;;;;;;4.50;2.40;;;;;;;3.18;68.00;103433.69;6196071;28;20653;-69
2023/04/03 05:59:03;;;;;;;23.07;16.23;;;;;;;3.24;68.40;103428.25;6196012;28;21622;-69
2023/04/03 06:02:26;;;;;;;13.30;8.03;;;;;;;3.30;67.71;103432.41;6218598;28;20240;-71
2023/04/03 06:05:48;;;;;;;4.77;2.00;;;;;;;3.38;67.67;103425.97;6191671;28;20259;-70
2023/04/03 06:09:09;;;;;;;4.63;2.40;;;;;;;3.47;67.07;103431.75;6180133;28;20253;-70
2023/04/03 06:12:30;;;;;;;2.27;1.90;;;;;;;3.54;67.29;103428.84;6202712;28;20263;-69
2023/04/03 06:15:51;;;;;;;2.10;2.00;;;;;;;3.63;66.89;103435.44;6183160;28;20232;-69
2023/04/03 06:19:14;;;;;;;4.70;1.97;;;;;;;3.69;66.62;103438.69;6190965;28;21127;-70
2023/04/03 06:22:41;;;;;;;6.73;2.80;;;;;;;3.72;66.61;103435.97;6211151;28;20348;-69
2023/04/03 06:26:02;;;;;;;2.20;1.37;;;;;;;3.80;66.33;103440.03;6225093;28;20652;-69
2023/04/03 06:29:23;;;;;;;2.43;2.23;;;;;;;3.90;65.80;103438.75;6197242;28;20229;-70
2023/04/03 06:32:44;;;;;;;4.13;2.30;;;;;;;3.99;65.63;103446.22;6218715;28;20232;-70
2023/04/03 06:36:08;;;;;;;2.33;1.60;;;;;;;4.09;64.52;103450.16;6223950;28;20232;-69
2023/04/03 06:39:29;;;;;;;1.53;1.37;;;;;;;4.16;64.93;103443.78;6208104;28;20519;-72
2023/04/03 06:42:50;;;;;;;4.23;1.90;;;;;;;4.29;64.48;103442.34;6198294;28;20248;-72
2023/04/03 06:46:16;;;;;;;4.37;2.70;;;;;;;4.43;63.50;103444.38;6187299;28;20236;-70
2023/04/03 06:49:37;;;;;;;2.10;1.90;;;;;;;4.50;63.35;103455.44;6211898;28;20254;-70
2023/04/03 06:53:00;;;;;;;2.67;2.47;;;;;;;4.64;62.65;103460.94;6207315;28;21347;-70
2023/04/03 06:56:22;;;;;;;4.20;1.70;;;;;;;4.71;62.21;103455.38;6193195;28;20329;-68
2023/04/03 06:59:43;;;;;;;1.13;1.03;;;;;;;5.36;73.05;103459.44;6191641;28;20249;-70
2023/04/03 07:03:04;;;;;;;3.07;1.43;;;;;;;6.41;75.54;103459.63;6195665;28;20236;-72
2023/04/03 07:06:26;;;;;;;1.53;1.43;;;;;;;6.63;63.33;103455.91;6204441;28;20225;-68
2023/04/03 07:09:49;;;;;;;1.93;1.73;;;;;;;6.90;61.09;103454.47;6194693;28;20229;-69
2023/04/03 07:13:10;;;;;;;1.10;1.10;;;;;;;6.47;54.62;103453.22;6209312;28;20562;-69
2023/04/03 07:16:31;;;;;;;1.47;1.17;;;;;;;5.93;56.40;103465.50;6190145;28;20585;-69
2023/04/03 07:19:52;;;;;;;6.47;1.37;;;;;;;5.68;57.62;103472.78;6207593;28;20625;-70
2023/04/03 07:23:13;;;;;;;2.37;1.83;;;;;;;5.68;57.63;103468.41;6202351;28;20236;-71
2023/04/03 07:26:36;;;;;;;1.60;1.47;;;;;;;5.65;57.45;103473.78;6218859;28;20236;-69
2023/04/03 07:29:57;;;;;;;1.20;1.10;;;;;;;5.54;57.74;103481.31;6194740;28;21429;-70
2023/04/03 07:33:20;;;;;;;1.60;1.50;;;;;;;5.64;57.97;103479.97;6201089;28;20240;-70
2023/04/03 07:36:41;;;;;;;1.20;1.10;;;;;;;5.64;58.57;103479.97;6212587;28;20240;-70
2023/04/03 07:40:03;;;;;;;2.77;1.53;;;;;;;5.73;57.83;103478.69;6204426;28;20521;-69
2023/04/03 07:43:26;;;;;;;1.20;1.10;;;;;;;5.76;57.06;103468.06;6183604;28;20233;-68
2023/04/03 07:46:46;;;;;;;1.23;1.13;;;;;;;5.76;55.63;103468.06;6227165;28;20228;-68
2023/04/03 07:50:08;;;;;;;1.07;0.80;;;;;;;5.65;53.74;103468.53;6192540;28;20659;-70
2023/04/03 07:53:29;;;;;;;2.47;1.43;;;;;;;5.70;54.82;103463.94;6207403;28;20262;-66
2023/04/03 07:56:50;;;;;;;1.50;1.10;;;;;;;6.21;57.55;103467.63;6214348;28;20229;-69
2023/04/03 08:00:14;;;;;;;2.20;0.90;;;;;;;6.41;57.28;103461.41;6204570;28;20236;-66
2023/04/03 08:03:35;;;;;;;3.23;0.87;;;;;;;6.66;52.97;103468.88;6197720;28;20589;-69
2023/04/03 08:06:56;;;;;;;0.70;0.70;;;;;;;6.89;56.14;103473.78;6207814;28;20221;-68
2023/04/03 08:10:17;;;;;;;1.43;1.33;;;;;;;6.95;50.79;103470.00;6192179;28;20224;-72
2023/04/03 08:13:38;;;;;;;1.47;1.13;;;;;;;6.62;49.84;103468.19;6200111;28;20610;-69
2023/04/03 08:17:00;;;;;;;1.17;1.07;;;;;;;6.46;50.20;103472.50;6208115;28;20244;-70
2023/04/03 08:20:21;;;;;;;1.00;1.00;;;;;;;6.54;49.40;103467.75;6206360;28;20228;-72
2023/04/03 08:23:42;;;;;;;1.87;1.07;;;;;;;6.73;51.50;103465.88;6192250;28;20229;-71
2023/04/03 08:27:03;;;;;;;0.80;0.80;;;;;;;6.87;50.00;103473.00;6213362;28;20263;-69
2023/04/03 08:30:24;;;;;;;2.53;1.43;;;;;;;7.00;48.95;103470.63;6191294;28;20668;-70
2023/04/03 08:33:47;;;;;;;0.63;0.63;;;;;;;6.84;48.05;103465.28;6200714;28;20232;-70
2023/04/03 08:37:08;;;;;;;0.70;0.70;;;;;;;6.98;48.73;103462.81;6216170;28;20240;-70
2023/04/03 08:40:30;;;;;;;3.53;0.77;;;;;;;7.01;46.79;103462.63;6215952;28;20236;-69
2023/04/03 08:44:04;;;;;;;2.23;1.70;;;;;;;7.07;46.98;103464.94;6206194;28;20266;-70
2023/04/03 08:47:31;;;;;;;2.80;1.30;;;;;;;7.00;45.63;103463.59;6212190;28;20236;-70
2023/04/03 08:50:57;;;;;;;1.47;0.70;;;;;;;7.07;46.78;103462.31;6196164;28;20247;-70
2023/04/03 08:54:26;;;;;;;1.17;1.00;;;;;;;7.20;46.07;103458.13;6199934;28;20237;-68
2023/04/03 08:57:49;;;;;;;0.63;0.60;;;;;;;7.34;44.82;103453.88;6214802;28;20657;-68
2023/04/03 09:01:19;;;;;;;1.00;0.87;;;;;;;7.24;43.41;103450.91;6221407;28;20237;-69
2023/04/03 09:04:40;;;;;;;1.00;0.60;;;;;;;7.44;43.96;103457.72;6213117;28;20252;-69
2023/04/03 09:08:08;;;;;;;1.00;0.90;;;;;;;7.45;41.76;103459.41;6217090;28;20228;-69
2023/04/03 09:11:42;;;;;;;0.60;0.60;;;;;;;7.59;41.45;103456.88;6224546;28;20229;-69
2023/04/03 09:15:11;;;;;;;0.80;0.80;;;;;;;7.61;40.95;103452.38;6179400;28;20237;-70
2023/04/03 09:18:36;;;;;;;1.80;1.03;;;;;;;7.63;40.25;103453.16;6209964;28;20243;-70
2023/04/03 09:21:58;;;;;;;0.77;0.77;;;;;;;7.58;40.48;103457.81;6233541;28;20265;-70
2023/04/03 09:25:22;;;;;;;3.80;0.80;;;;;;;7.44;40.01;103444.59;6217062;28;20510;-69
2023/04/03 09:28:44;;;;;;;3.07;1.90;;;;;;;7.76;40.98;103441.00;6212255;28;20682;-69
2023/04/03 09:32:25;;;;;;;1.27;1.20;;;;;;;7.95;39.36;103442.56;6228285;28;20232;-70
2023/04/03 09:35:48;;;;;;;1.00;0.90;;;;;;;8.16;40.71;103439.56;6193590;28;20588;-70
2023/04/03 09:39:12;;;;;;;0.87;0.87;;;;;;;8.30;39.34;103440.56;6210216;28;20320;-69
2023/04/03 09:42:47;;;;;;;1.23;1.13;;;;;;;8.22;37.81;103444.47;6227855;28;20297;-70
2023/04/03 09:46:24;;;;;;;0.57;0.57;;;;;;;8.32;37.84;103441.31;6227990;28;20255;-69
2023/04/03 09:49:45;;;;;;;0.60;0.60;;;;;;;8.42;37.48;103434.59;6208700;28;20224;-70
2023/04/03 09:53:08;;;;;;;1.47;1.03;;;;;;;8.57;37.54;103434.53;6212096;28;20319;-70
2023/04/03 09:56:31;;;;;;;2.03;0.90;;;;;;;8.88;37.47;103432.66;6214202;28;20224;-69
2023/04/03 10:00:04;;;;;;;1.43;0.70;;;;;;;9.14;36.22;103418.72;6188354;28;20233;-69
2023/04/03 10:03:30;;;;;;;1.93;0.63;;;;;;;9.14;34.82;103423.16;6178187;28;20229;-69
2023/04/03 10:06:55;;;;;;;1.63;0.70;;;;;;;9.41;34.60;103415.31;6217582;28;20231;-70
2023/04/03 10:10:19;;;;;;;1.87;0.60;;;;;;;9.62;34.87;103413.94;6201269;28;20236;-69
2023/04/03 10:13:59;;;;;;;2.23;2.03;;;;;;;9.41;31.90;103410.03;6218252;28;20658;-68
2023/04/03 10:17:34;;;;;;;2.10;1.80;;;;;;;9.63;32.65;103407.72;6230018;28;20239;-69
2023/04/03 10:21:01;;;;;;;0.83;0.70;;;;;;;10.04;32.46;103404.97;6213997;28;20233;-68
2023/04/03 10:24:29;;;;;;;0.73;0.73;;;;;;;9.74;30.76;103401.72;6219666;28;20276;-69
2023/04/03 10:27:59;;;;;;;0.80;0.80;;;;;;;10.16;30.26;103401.53;6222174;28;20220;-69
2023/04/03 10:31:27;;;;;;;1.27;0.67;;;;;;;10.27;29.74;103390.28;6224066;28;20570;-69
2023/04/03 10:34:55;;;;;;;0.67;0.67;;;;;;;10.06;29.36;103392.53;6201044;28;20229;-70
2023/04/03 10:38:25;;;;;;;1.13;0.87;;;;;;;10.46;29.57;103395.97;6219338;28;20586;-69
2023/04/03 10:41:57;;;;;;;1.30;0.60;;;;;;;10.75;29.34;103395.78;6218691;28;20251;-69
2023/04/03 10:45:25;;;;;;;0.83;0.83;;;;;;;10.89;29.21;103387.72;6210072;28;20228;-70
2023/04/03 10:49:00;;;;;;;0.87;0.63;;;;;;;11.93;39.56;103381.88;6189953;28;20225;-71
2023/04/03 10:52:29;;;;;;;0.70;0.70;;;;;;;12.41;37.34;103379.09;6217087;28;20240;-72
2023/04/03 10:55:59;;;;;;;0.43;0.43;;;;;;;13.23;34.73;103383.19;6194866;28;20240;-72
2023/04/03 10:59:26;;;;;;;1.33;0.83;;;;;;;12.89;31.05;103369.09;6196171;28;20235;-71
2023/04/03 11:02:52;;;;;;;1.13;0.50;;;;;;;13.08;30.47;103363.19;6216398;28;20232;-71
2023/04/03 11:06:16;;;;;;;0.40;0.40;;;;;;;13.71;27.66;103366.03;6215199;28;20630;-70
2023/04/03 11:09:42;;;;;;;2.60;0.77;;;;;;;14.15;27.26;103364.97;6197957;28;20646;-69
2023/04/03 11:13:11;;;;;;;0.43;0.43;;;;;;;16.06;23.63;103347.78;6208054;28;20235;-69
2023/04/03 11:16:38;;;;;;;2.63;0.60;;;;;;;20.27;19.06;103334.72;6211508;28;20263;-70
2023/04/03 11:20:07;;;;;;;2.33;0.80;;;;;;;21.52;17.20;103325.69;6210373;28;20228;-70
2023/04/03 11:23:32;;;;;;;1.23;1.13;;;;;;;16.86;20.98;103334.91;6198849;28;20685;-70
2023/04/03 11:26:56;;;;;;;2.83;0.67;;;;;;;18.55;18.34;103336.47;6211680;28;20245;-70
2023/04/03 11:30:22;;;;;;;0.45;0.45;;;;;;;22.27;15.30;103322.16;6186232;28;20550;-71
2023/04/03 11:33:52;;;;;;;1.27;0.60;;;;;;;23.99;14.19;103320.25;6197509;28;20230;-70
2023/04/03 11:37:18;;;;;;;0.40;0.40;;;;;;;23.84;13.90;103317.69;6224280;28;20598;-70
2023/04/03 11:40:40;;;;;;;3.97;1.35;;;;;;;17.77;20.16;103328.50;6217561;28;20236;-71
2023/04/03 11:44:04;;;;;;;1.35;0.75;;;;;;;14.79;24.14;103338.16;6193054;28;20340;-73
2023/04/03 11:47:47;;;;;;;2.60;1.55;;;;;;;13.94;25.37;103325.13;6223416;28;20232;-68
2023/04/03 11:51:40;;;;;;;3.20;0.80;;;;;;;11.89;29.83;103334.56;6230368;28;20888;-69
2023/04/03 11:55:02;;;;;;;2.73;1.17;;;;;;;11.77;30.65;103331.03;6199401;28;20225;-68
2023/04/03 11:58:24;;;;;;;1.50;1.33;;;;;;;11.67;30.65;103337.09;6209617;28;20241;-71
2023/04/03 12:01:48;;;;;;;0.80;0.80;;;;;;;13.41;28.57;103325.13;6223712;28;20241;-70
2023/04/03 12:05:29;;;;;;;0.60;0.60;;;;;;;12.23;28.95;103314.28;6204414;28;20232;-69
2023/04/03 12:08:53;;;;;;;1.73;0.80;;;;;;;17.88;22.82;103311.38;6198506;28;20225;-70
2023/04/03 12:12:31;;;;;;;0.77;0.60;;;;;;;20.40;18.11;103300.16;6211158;28;20236;-70
2023/04/03 12:15:54;;;;;;;1.75;1.08;;;;;;;23.86;14.36;103287.81;6196925;28;20236;-68
2023/04/03 12:19:40;;;;;;;1.35;0.73;;;;;;;23.50;14.12;103296.00;6201082;28;20234;-72
2023/04/03 12:23:25;;;;;;;2.50;0.60;;;;;;;25.55;12.12;103284.22;6217135;28;20221;-71
2023/04/03 12:26:51;;;;;;;1.05;0.73;;;;;;;27.19;11.59;103284.69;6223153;28;20236;-72
2023/04/03 12:30:21;;;;;;;0.52;0.52;;;;;;;27.17;10.32;103286.78;6190157;28;21794;-69
2023/04/03 12:34:05;;;;;;;1.23;1.13;;;;;;;26.38;10.71;103277.22;6190192;28;20229;-71
2023/04/03 12:37:44;;;;;;;0.60;0.47;;;;;;;27.80;10.05;103284.78;6220078;28;20232;-69
2023/04/03 12:41:20;;;;;;;2.35;0.65;;;;;;;26.49;10.00;103270.28;6227252;28;20240;-70
2023/04/03 12:44:50;;;;;;;2.25;0.73;;;;;;;27.91;9.04;103269.66;6207690;28;20726;-72
2023/04/03 12:48:17;;;;;;;0.40;0.40;;;;;;;27.13;9.38;103264.69;6217517;28;20586;-71
2023/04/03 12:51:40;;;;;;;0.47;0.40;;;;;;;27.88;9.05;103254.63;6220290;28;20236;-70
2023/04/03 12:55:09;;;;;;;0.52;0.52;;;;;;;28.27;9.26;103254.41;6212840;28;20314;-69
2023/04/03 12:58:31;;;;;;;1.17;0.85;;;;;;;22.61;12.43;103260.47;6217108;28;20232;-70
2023/04/03 13:01:56;;;;;;;0.98;0.47;;;;;;;23.03;12.99;103266.97;6219475;28;20750;-70
2023/04/03 13:05:20;;;;;;;1.60;0.73;;;;;;;26.18;10.82;103261.03;6198042;28;20220;-69
2023/04/03 13:08:49;;;;;;;2.10;1.85;;;;;;;27.58;9.52;103259.94;6201003;28;20225;-70
2023/04/03 13:12:16;;;;;;;1.10;1.00;;;;;;;27.41;9.68;103261.56;6218075;28;20273;-72
2023/04/03 13:15:45;;;;;;;2.30;0.93;;;;;;;27.58;9.62;103254.53;6190385;28;20224;-69
2023/04/03 13:19:06;;;;;;;0.70;0.70;;;;;;;27.17;10.35;103249.66;6212939;28;20266;-70
2023/04/03 13:22:32;;;;;;;0.57;0.57;;;;;;;27.76;9.24;103242.06;6219711;28;21280;-69
2023/04/03 13:25:54;;;;;;;0.90;0.65;;;;;;;26.79;8.86;103252.41;6206125;28;20220;-69
2023/04/03 13:29:24;;;;;;;1.13;0.80;;;;;;;27.64;9.36;103250.09;6207157;28;20971;-71
2023/04/03 13:32:45;;;;;;;2.80;1.52;;;;;;;26.81;9.77;103244.06;6215344;28;20260;-70
2023/04/03 13:36:08;;;;;;;1.77;1.67;;;;;;;26.76;9.82;103236.59;6212840;28;20970;-70
2023/04/03 13:39:31;;;;;;;1.40;0.93;;;;;;;25.14;10.79;103241.16;6197695;28;20225;-69
2023/04/03 13:43:01;;;;;;;0.70;0.70;;;;;;;24.25;11.15;103240.50;6208530;28;20228;-70
2023/04/03 13:46:27;;;;;;;1.10;0.63;;;;;;;20.52;14.88;103243.44;6219884;28;20394;-71
2023/04/03 13:50:02;;;;;;;0.82;0.82;;;;;;;22.85;13.06;103238.59;6208269;28;20629;-71
2023/04/03 13:53:24;;;;;;;2.55;2.35;;;;;;;25.40;10.30;103227.66;6212623;28;20225;-70
2023/04/03 13:56:46;;;;;;;2.20;2.00;;;;;;;25.50;10.66;103233.47;6229089;28;20256;-72
2023/04/03 14:00:35;;;;;;;1.23;1.08;;;;;;;23.60;11.98;103229.13;6193320;28;20621;-70
2023/04/03 14:04:00;;;;;;;1.10;0.68;;;;;;;23.75;11.12;103224.44;6209327;28;20224;-72
2023/04/03 14:07:22;;;;;;;0.50;0.50;;;;;;;21.72;13.54;103229.25;6216400;28;21484;-72
2023/04/03 14:10:43;;;;;;;1.10;1.00;;;;;;;22.68;12.48;103229.06;6222981;28;20232;-68
2023/04/03 14:14:10;;;;;;;1.08;0.75;;;;;;;22.99;12.30;103217.19;6217295;28;20217;-70
2023/04/03 14:17:32;;;;;;;1.10;0.60;;;;;;;22.94;11.05;103211.56;6228324;28;20224;-69
2023/04/03 14:20:54;;;;;;;2.00;0.50;;;;;;;22.37;11.93;103215.03;6202255;28;20236;-69
2023/04/03 14:24:16;;;;;;;0.77;0.60;;;;;;;20.61;14.09;103211.00;6194163;28;20229;-68
2023/04/03 14:27:40;;;;;;;2.35;0.50;;;;;;;18.58;15.74;103219.31;6220069;28;20237;-71
2023/04/03 14:31:01;;;;;;;1.33;1.17;;;;;;;17.57;17.28;103220.13;6222285;28;20240;-69
2023/04/03 14:34:22;;;;;;;2.10;0.63;;;;;;;16.38;18.77;103223.97;6200293;28;20232;-70
2023/04/03 14:37:44;;;;;;;0.52;0.52;;;;;;;17.15;17.79;103210.16;6231190;28;20224;-72
2023/04/03 14:41:05;;;;;;;1.67;0.70;;;;;;;17.33;17.95;103207.44;6223217;28;20244;-71
2023/04/03 14:44:26;;;;;;;1.08;0.82;;;;;;;16.52;18.90;103204.81;6216538;28;20224;-72
2023/04/03 14:47:50;;;;;;;0.77;0.77;;;;;;;16.57;19.32;103212.34;6223984;28;20241;-69
2023/04/03 14:51:12;;;;;;;3.63;1.70;;;;;;;16.49;19.37;103201.63;6223696;28;20240;-68
2023/04/03 14:54:35;;;;;;;0.93;0.80;;;;;;;15.24;19.86;103200.19;6215568;28;20521;-69
2023/04/03 14:57:56;;;;;;;0.63;0.63;;;;;;;15.82;20.93;103200.94;6214400;28;20319;-70
2023/04/03 15:01:18;;;;;;;0.77;0.77;;;;;;;15.05;21.40;103203.69;6202493;28;20252;-70
2023/04/03 15:04:39;;;;;;;0.80;0.80;;;;;;;15.70;24.64;103199.44;6200571;28;20245;-68
2023/04/03 15:08:00;;;;;;;0.77;0.70;;;;;;;15.66;22.84;103196.22;6213968;28;20248;-69
2023/04/03 15:11:22;;;;;;;1.83;0.93;;;;;;;15.96;23.59;103192.47;6206605;28;20311;-66
2023/04/03 15:14:43;;;;;;;1.07;1.07;;;;;;;16.00;22.94;103193.88;6202398;28;20702;-67
2023/04/03 15:18:04;;;;;;;0.50;0.50;;;;;;;15.24;22.83;103194.88;6210474;28;20229;-67
2023/04/03 15:21:25;;;;;;;1.20;0.93;;;;;;;15.53;24.15;103193.00;6196929;28;20240;-67
2023/04/03 15:24:46;;;;;;;1.40;1.10;;;;;;;15.00;25.36;103206.78;6211864;28;20224;-66
2023/04/03 15:28:11;;;;;;;2.00;1.90;;;;;;;14.75;25.25;103204.66;6221398;28;20232;-67
2023/04/03 15:31:32;;;;;;;0.70;0.70;;;;;;;14.69;25.58;103194.56;6201280;28;20228;-66
2023/04/03 15:34:55;;;;;;;2.13;1.33;;;;;;;14.75;23.77;103194.03;6211333;28;20232;-66
2023/04/03 15:38:15;;;;;;;0.90;0.90;;;;;;;15.35;26.00;103192.06;6215829;28;20236;-66
2023/04/03 15:41:36;;;;;;;3.13;0.90;;;;;;;15.02;25.75;103191.53;6221858;28;20576;-66
2023/04/03 15:44:59;;;;;;;2.63;0.97;;;;;;;14.53;24.98;103184.47;6193507;28;20225;-69
2023/04/03 15:48:20;;;;;;;1.03;0.80;;;;;;;14.48;23.64;103183.19;6188524;28;20570;-69
2023/04/03 15:51:41;;;;;;;1.40;0.80;;;;;;;14.16;24.36;103180.72;6210244;28;20224;-69
2023/04/03 15:55:02;;;;;;;2.07;0.93;;;;;;;14.22;24.92;103180.19;6201187;28;20621;-69
2023/04/03 15:58:23;;;;;;;0.63;0.63;;;;;;;13.66;24.78;103180.63;6196937;28;20558;-69